createdAt,value
2023-07-21T00:00:40.643Z,101071.34
2023-07-21T00:03:11.568Z,101056.59
2023-07-21T00:05:38.901Z,101076.19
2023-07-21T00:08:08.032Z,101089.53
2023-07-21T00:10:43.643Z,101069.97
2023-07-21T00:13:14.038Z,101073.81
2023-07-21T00:15:50.889Z,101068.31
2023-07-21T00:18:20.154Z,101077.38
2023-07-21T00:20:53.925Z,101065.81
2023-07-21T00:23:28.070Z,101066.59
2023-07-21T00:25:56.379Z,101076.25
2023-07-21T00:28:28.489Z,101063.34
2023-07-21T00:30:56.524Z,101077.03
2023-07-21T00:33:36.432Z,101070.06
2023-07-21T00:36:13.797Z,101061.47
2023-07-21T00:38:47.767Z,101063.97
2023-07-21T00:41:16.944Z,101075.59
2023-07-21T00:43:49.472Z,101045.66
2023-07-21T00:46:19.498Z,101055.22
2023-07-21T00:48:52.948Z,101054.41
2023-07-21T00:51:24.437Z,101037.03
2023-07-21T00:53:54.429Z,101054.22
2023-07-21T00:56:22.602Z,101040.06
2023-07-21T00:58:51.011Z,101048.88
2023-07-21T01:01:26.099Z,101051.03
2023-07-21T01:03:53.546Z,101042.56
2023-07-21T01:06:21.148Z,101049.31
2023-07-21T01:08:48.353Z,101039.06
2023-07-21T01:11:15.625Z,101045.72
2023-07-21T01:13:42.633Z,101043.97
2023-07-21T01:16:12.579Z,101030.44
2023-07-21T01:18:42.440Z,101021.53
2023-07-21T01:21:15.598Z,101037.50
2023-07-21T01:23:51.691Z,101032.06
2023-07-21T01:26:22.279Z,101016.72
2023-07-21T01:28:53.163Z,101028.84
2023-07-21T01:31:21.220Z,101020.75
2023-07-21T01:33:50.047Z,101031.66
2023-07-21T01:36:18.804Z,101021.13
2023-07-21T01:38:47.298Z,101013.03
2023-07-21T01:41:16.611Z,101016.28
2023-07-21T01:43:44.026Z,101020.31
2023-07-21T01:46:12.385Z,101022.38
2023-07-21T01:48:39.430Z,101009.47
2023-07-21T01:51:06.618Z,101006.00
2023-07-21T01:53:37.318Z,101008.41
2023-07-21T01:56:09.354Z,100995.25
2023-07-21T01:58:39.150Z,100995.06
2023-07-21T02:01:09.704Z,101009.16
2023-07-21T02:03:37.842Z,101004.19
2023-07-21T02:06:18.295Z,100994.66
2023-07-21T02:08:45.560Z,101001.69
2023-07-21T02:11:12.749Z,100999.34
2023-07-21T02:13:54.832Z,100998.38
2023-07-21T02:16:23.434Z,100990.50
2023-07-21T02:18:55.096Z,100995.78
2023-07-21T02:21:22.121Z,100997.03
2023-07-21T02:23:50.795Z,100992.16
2023-07-21T02:26:17.912Z,100994.97
2023-07-21T02:28:44.753Z,100997.78
2023-07-21T02:31:12.427Z,101003.47
2023-07-21T02:33:39.440Z,100981.22
2023-07-21T02:36:09.647Z,100981.22
2023-07-21T02:38:36.340Z,100997.00
2023-07-21T02:41:05.430Z,100990.16
2023-07-21T02:43:35.420Z,100987.53
2023-07-21T02:46:05.576Z,100988.09
2023-07-21T02:48:35.108Z,100981.59
2023-07-21T02:51:02.048Z,100969.47
2023-07-21T02:53:34.479Z,100987.00
2023-07-21T02:56:05.415Z,100988.09
2023-07-21T02:58:49.404Z,100987.72
2023-07-21T03:01:21.859Z,100977.97
2023-07-21T03:03:49.198Z,100994.47
2023-07-21T03:06:16.884Z,100983.28
2023-07-21T03:08:43.931Z,100988.53
2023-07-21T03:11:15.387Z,100977.75
2023-07-21T03:14:07.547Z,100989.03
2023-07-21T03:16:37.738Z,100984.28
2023-07-21T03:19:06.134Z,100977.31
2023-07-21T03:21:33.045Z,100977.16
2023-07-21T03:24:00.139Z,100969.75
2023-07-21T03:26:29.179Z,100974.41
2023-07-21T03:28:56.818Z,100983.34
2023-07-21T03:31:25.780Z,100975.28
2023-07-21T03:33:59.661Z,100982.84
2023-07-21T03:36:31.052Z,100982.00
2023-07-21T03:38:59.323Z,100978.38
2023-07-21T03:41:26.366Z,100969.03
2023-07-21T03:43:53.377Z,100972.69
2023-07-21T03:46:21.373Z,100955.13
2023-07-21T03:49:14.796Z,100953.72
2023-07-21T03:51:47.824Z,100951.28
2023-07-21T03:54:16.440Z,100961.81
2023-07-21T03:56:43.560Z,100961.63
2023-07-21T03:59:12.850Z,100953.69
2023-07-21T04:01:40.161Z,100958.69
2023-07-21T04:04:09.914Z,100962.94
2023-07-21T04:06:39.807Z,100964.50
2023-07-21T04:09:09.528Z,100958.56
2023-07-21T04:11:36.485Z,100955.31
2023-07-21T04:14:03.461Z,100940.09
2023-07-21T04:16:30.403Z,100955.00
2023-07-21T04:18:58.938Z,100954.78
2023-07-21T04:21:26.782Z,100957.38
2023-07-21T04:23:54.165Z,100952.50
2023-07-21T04:26:20.997Z,100940.25
2023-07-21T04:28:48.856Z,100951.19
2023-07-21T04:31:22.959Z,100938.31
2023-07-21T04:34:05.428Z,100947.81
2023-07-21T04:36:36.238Z,100954.78
2023-07-21T04:39:09.102Z,100948.28
2023-07-21T04:41:36.123Z,100945.06
2023-07-21T04:44:03.654Z,100945.19
2023-07-21T04:46:31.174Z,100956.53
2023-07-21T04:48:59.740Z,100943.69
2023-07-21T04:51:36.661Z,100944.97
2023-07-21T04:54:03.898Z,100950.53
2023-07-21T04:56:30.864Z,100960.16
2023-07-21T04:58:57.832Z,100950.16
2023-07-21T05:01:25.166Z,100959.47
2023-07-21T05:03:52.230Z,100954.50
2023-07-21T05:06:19.401Z,100952.81
2023-07-21T05:08:50.709Z,100950.19
2023-07-21T05:11:17.495Z,100949.69
2023-07-21T05:13:46.373Z,100943.91
2023-07-21T05:16:26.624Z,100947.38
2023-07-21T05:19:17.080Z,100947.50
2023-07-21T05:22:00.205Z,100938.56
2023-07-21T05:24:56.618Z,100948.41
2023-07-21T05:27:24.980Z,100951.81
2023-07-21T05:29:58.384Z,100946.31
2023-07-21T05:32:28.955Z,100952.94
2023-07-21T05:35:10.680Z,100953.63
2023-07-21T05:37:39.283Z,100955.09
2023-07-21T05:40:07.990Z,100956.63
2023-07-21T05:42:35.556Z,100952.00
2023-07-21T05:45:06.627Z,100948.00
2023-07-21T05:47:34.750Z,100943.53
2023-07-21T05:50:02.442Z,100949.94
2023-07-21T05:52:34.941Z,100945.34
2023-07-21T05:55:04.367Z,100930.88
2023-07-21T05:57:33.486Z,100927.81
2023-07-21T06:00:00.617Z,100941.28
2023-07-21T06:02:28.138Z,100926.28
2023-07-21T06:05:00.001Z,100943.97
2023-07-21T06:07:46.570Z,100936.91
2023-07-21T06:10:13.720Z,100937.28
2023-07-21T06:12:49.876Z,100934.88
2023-07-21T06:15:22.419Z,100930.06
2023-07-21T06:17:57.479Z,100943.22
2023-07-21T06:20:26.371Z,100941.13
2023-07-21T06:22:54.006Z,100948.78
2023-07-21T06:25:21.693Z,100950.63
2023-07-21T06:27:52.331Z,100947.00
2023-07-21T06:30:21.542Z,100939.09
2023-07-21T06:32:51.062Z,100943.97
2023-07-21T06:35:38.310Z,100947.84
2023-07-21T06:38:28.503Z,100951.31
2023-07-21T06:41:05.784Z,100949.53
2023-07-21T06:43:54.135Z,100950.97
2023-07-21T06:46:39.833Z,100944.91
2023-07-21T06:49:30.613Z,100938.53
2023-07-21T06:52:01.461Z,100947.34
2023-07-21T06:54:32.139Z,100947.97
2023-07-21T06:57:01.982Z,100937.13
2023-07-21T06:59:28.721Z,100947.03
2023-07-21T07:01:56.410Z,100934.41
2023-07-21T07:04:23.413Z,100941.09
2023-07-21T07:06:50.224Z,100947.41
2023-07-21T07:09:17.474Z,100937.59
2023-07-21T07:11:44.872Z,100949.47
2023-07-21T07:14:15.270Z,100935.06
2023-07-21T07:16:49.463Z,100937.03
2023-07-21T07:19:19.333Z,100929.59
2023-07-21T07:21:50.134Z,100936.94
2023-07-21T07:24:20.344Z,100932.16
2023-07-21T07:26:49.240Z,100938.38
2023-07-21T07:29:18.157Z,100922.06
2023-07-21T07:31:48.682Z,100916.22
2023-07-21T07:34:17.194Z,100919.72
2023-07-21T07:36:53.049Z,100919.75
2023-07-21T07:39:23.716Z,100925.63
2023-07-21T07:41:56.375Z,100916.50
2023-07-21T07:44:25.586Z,100925.28
2023-07-21T09:01:30.206Z,100941.53
2023-07-21T09:56:37.844Z,100890.50
2023-07-21T10:39:36.198Z,100916.50
2023-07-21T10:43:04.119Z,100933.28
2023-07-21T10:52:15.931Z,100952.66
2023-07-21T11:07:37.892Z,100945.66
2023-07-21T11:16:34.878Z,100949.09
2023-07-21T12:32:29.615Z,100936.59
2023-07-21T12:35:07.946Z,100941.09
2023-07-21T12:37:57.134Z,100925.03
2023-07-21T12:41:11.332Z,100935.41
2023-07-21T12:44:12.028Z,100939.22
2023-07-21T12:50:21.681Z,100939.63
2023-07-21T12:53:37.347Z,100953.13
2023-07-21T13:00:14.277Z,100952.94
2023-07-21T13:03:17.684Z,100971.69
2023-07-21T13:06:06.939Z,100953.50
2023-07-21T13:11:49.745Z,100946.53
2023-07-21T13:14:30.054Z,100950.16
2023-07-21T13:17:07.754Z,100961.69
2023-07-21T13:23:33.758Z,100962.31
2023-07-21T13:26:19.084Z,100954.72
2023-07-21T13:28:58.394Z,100958.88
2023-07-21T13:31:46.223Z,100947.84
2023-07-21T13:34:26.602Z,100959.56
2023-07-21T13:37:13.983Z,100965.44
2023-07-21T13:40:00.524Z,100968.47
2023-07-21T13:42:56.330Z,100972.53
2023-07-21T13:45:30.676Z,100954.25
2023-07-21T13:47:59.269Z,100958.34
2023-07-21T13:50:28.816Z,100970.34
2023-07-21T13:53:00.894Z,100956.72
2023-07-21T14:02:04.177Z,100949.19
2023-07-21T14:04:43.446Z,100957.44
2023-07-21T14:10:13.899Z,100965.66
2023-07-21T14:13:02.042Z,100980.16
2023-07-21T14:15:44.162Z,100979.63
2023-07-21T14:18:31.924Z,100980.63
2023-07-21T14:21:04.073Z,100977.47
2023-07-21T14:23:33.166Z,100980.78
2023-07-21T14:26:07.785Z,100987.47
2023-07-21T14:28:51.716Z,100973.69
2023-07-21T14:31:43.248Z,100983.56
2023-07-21T14:34:43.299Z,100991.53
2023-07-21T14:37:23.737Z,101000.53
2023-07-21T14:39:53.546Z,101005.53
2023-07-21T14:42:21.834Z,101006.47
2023-07-21T14:44:51.639Z,100996.41
2023-07-21T14:47:34.831Z,100997.63
2023-07-21T14:50:08.278Z,101002.50
2023-07-21T14:52:44.524Z,101001.59
2023-07-21T14:55:23.562Z,101011.00
2023-07-21T14:57:51.616Z,101009.63
2023-07-21T15:00:23.802Z,101016.44
2023-07-21T15:02:54.597Z,101018.03
2023-07-21T15:05:30.707Z,101024.88
2023-07-21T15:07:58.980Z,101010.38
2023-07-21T15:10:32.141Z,101003.03
2023-07-21T15:13:03.300Z,101019.03
2023-07-21T15:15:30.164Z,101000.47
2023-07-21T15:17:59.429Z,101016.94
2023-07-21T15:20:27.361Z,101006.97
2023-07-21T15:23:01.672Z,101016.19
2023-07-21T15:25:28.869Z,101032.25
2023-07-21T15:27:55.915Z,101011.41
2023-07-21T15:30:24.915Z,101013.91
2023-07-21T15:32:54.522Z,101027.56
2023-07-21T15:35:21.358Z,101023.50
2023-07-21T15:37:50.070Z,101031.66
2023-07-21T15:40:19.869Z,101037.72
2023-07-21T15:42:47.577Z,101035.81
2023-07-21T15:45:14.345Z,101029.66
2023-07-21T15:47:41.291Z,101043.34
2023-07-21T15:50:12.569Z,101035.59
2023-07-21T15:52:42.515Z,101033.72
2023-07-21T15:55:12.486Z,101026.34
2023-07-21T15:57:40.358Z,101031.56
2023-07-21T16:00:17.093Z,101038.09
2023-07-21T16:02:52.105Z,101042.41
2023-07-21T16:05:20.494Z,101047.75
2023-07-21T16:07:48.756Z,101038.16
2023-07-21T16:13:50.958Z,101044.03
2023-07-21T16:16:29.469Z,101035.50
2023-07-21T16:18:56.923Z,101060.19
2023-07-21T16:21:24.649Z,101054.06
2023-07-21T16:23:53.851Z,101056.25
2023-07-21T16:26:24.045Z,101053.94
2023-07-21T16:28:51.786Z,101069.06
2023-07-21T16:31:19.317Z,101064.00
2023-07-21T16:36:17.675Z,101056.41
2023-07-21T16:38:46.396Z,101062.50
2023-07-21T16:41:14.513Z,101059.84
2023-07-21T16:43:44.170Z,101062.38
2023-07-21T16:46:11.420Z,101069.13
2023-07-21T16:48:38.949Z,101075.63
2023-07-21T16:51:09.420Z,101066.28
2023-07-21T16:53:36.667Z,101077.84
2023-07-21T16:56:11.091Z,101059.03
2023-07-21T16:58:40.893Z,101071.41
2023-07-21T17:01:11.579Z,101081.56
2023-07-21T17:03:39.231Z,101066.81
2023-07-21T17:06:10.596Z,101069.97
2023-07-21T17:08:51.282Z,101073.44
2023-07-21T17:11:26.417Z,101088.03
2023-07-21T17:13:59.923Z,101074.97
2023-07-21T17:16:27.640Z,101076.22
2023-07-21T17:18:55.862Z,101086.72
2023-07-21T17:21:23.047Z,101088.31
2023-07-21T17:23:50.040Z,101083.22
2023-07-21T17:26:19.569Z,101094.56
2023-07-21T17:28:46.819Z,101103.22
2023-07-21T17:31:14.569Z,101099.84
2023-07-21T17:33:44.824Z,101088.47
2023-07-21T17:36:11.926Z,101102.94
2023-07-21T17:38:38.895Z,101092.06
2023-07-21T17:41:14.714Z,101101.28
2023-07-21T17:43:41.952Z,101099.25
2023-07-21T17:46:09.020Z,101101.59
2023-07-21T17:48:39.084Z,101115.69
2023-07-21T17:51:06.331Z,101103.31
2023-07-21T17:53:33.350Z,101122.69
2023-07-21T17:56:00.672Z,101095.22
2023-07-21T17:58:27.756Z,101097.19
2023-07-21T18:00:58.793Z,101108.84
2023-07-21T18:03:25.965Z,101111.81
2023-07-21T18:05:54.554Z,101121.94
2023-07-21T18:08:27.691Z,101117.56
2023-07-21T18:10:54.996Z,101116.94
2023-07-21T18:13:29.324Z,101118.63
2023-07-21T18:15:56.983Z,101110.63
2023-07-21T18:18:25.044Z,101122.97
2023-07-21T18:21:08.804Z,101126.31
2023-07-21T18:23:37.841Z,101113.00
2023-07-21T18:26:08.780Z,101105.13
2023-07-21T18:28:38.849Z,101106.41
2023-07-21T18:31:09.202Z,101108.91
2023-07-21T18:33:39.860Z,101123.28
2023-07-21T18:36:15.196Z,101116.97
2023-07-21T18:38:49.797Z,101118.06
2023-07-21T18:41:25.641Z,101117.06
2023-07-21T18:50:55.272Z,101123.72
2023-07-21T18:53:22.627Z,101125.72
2023-07-21T18:55:52.437Z,101116.16
2023-07-21T18:58:19.823Z,101122.50
2023-07-21T19:00:48.817Z,101128.72
2023-07-21T19:03:15.847Z,101131.38
2023-07-21T19:05:43.051Z,101133.22
2023-07-21T19:08:14.797Z,101149.94
2023-07-21T19:10:42.114Z,101135.31
2023-07-21T19:13:26.882Z,101130.13
2023-07-21T19:15:54.524Z,101141.88
2023-07-21T19:18:24.911Z,101134.16
2023-07-21T19:20:51.983Z,101146.34
2023-07-21T19:23:18.715Z,101134.50
2023-07-21T19:25:52.524Z,101158.47
2023-07-21T19:28:19.460Z,101164.22
2023-07-21T19:30:46.902Z,101153.97
2023-07-21T19:33:18.252Z,101163.44
2023-07-21T19:35:45.199Z,101148.91
2023-07-21T19:38:11.838Z,101158.00
2023-07-21T19:40:39.711Z,101168.03
2023-07-21T19:43:10.703Z,101169.66
2023-07-21T19:45:41.176Z,101170.56
2023-07-21T19:48:10.003Z,101175.72
2023-07-21T19:50:37.619Z,101178.94
2023-07-21T19:53:04.467Z,101184.00
2023-07-21T19:55:38.626Z,101184.75
2023-07-21T19:58:07.291Z,101187.03
2023-07-21T20:00:33.966Z,101195.44
2023-07-21T20:03:00.809Z,101193.25
2023-07-21T20:05:27.782Z,101186.09
2023-07-21T20:07:54.850Z,101197.94
2023-07-21T20:10:22.718Z,101197.28
2023-07-21T20:12:51.780Z,101199.44
2023-07-21T20:15:19.870Z,101204.28
2023-07-21T20:17:47.128Z,101211.06
2023-07-21T20:20:16.428Z,101201.13
2023-07-21T20:22:46.147Z,101208.50
2023-07-21T20:25:13.394Z,101208.03
2023-07-21T20:27:40.132Z,101205.25
2023-07-21T20:30:07.765Z,101206.47
2023-07-21T20:32:34.533Z,101218.03
2023-07-21T20:35:03.534Z,101220.44
2023-07-21T20:37:30.571Z,101218.72
2023-07-21T20:39:57.403Z,101219.53
2023-07-21T20:42:24.288Z,101212.75
2023-07-21T20:44:51.030Z,101222.31
2023-07-21T20:47:20.828Z,101217.97
2023-07-21T20:49:50.629Z,101222.69
2023-07-21T20:52:17.523Z,101226.34
2023-07-21T20:54:44.111Z,101221.97
2023-07-21T20:57:11.463Z,101224.03
2023-07-21T20:59:43.663Z,101225.03
2023-07-21T21:02:15.262Z,101218.34
2023-07-21T21:04:42.540Z,101217.56
2023-07-21T21:07:09.370Z,101220.91
2023-07-21T21:09:36.252Z,101215.28
2023-07-21T21:12:03.234Z,101222.72
2023-07-21T21:14:29.892Z,101220.56
2023-07-21T21:16:56.760Z,101229.09
2023-07-21T21:19:23.656Z,101226.38
2023-07-21T21:21:50.341Z,101217.75
2023-07-21T21:24:18.705Z,101218.75
2023-07-21T21:26:46.012Z,101223.13
2023-07-21T21:29:12.759Z,101219.06
2023-07-21T21:31:39.675Z,101224.78
2023-07-21T21:34:07.714Z,101232.72
2023-07-21T21:36:34.477Z,101217.75
2023-07-21T21:39:01.662Z,101217.00
2023-07-21T21:41:28.321Z,101212.09
2023-07-21T21:43:54.953Z,101213.13
2023-07-21T21:46:24.726Z,101215.34
2023-07-21T21:48:51.799Z,101212.31
2023-07-21T21:51:19.123Z,101209.75
2023-07-21T21:53:45.907Z,101210.41
2023-07-21T21:56:12.804Z,101216.50
2023-07-21T21:58:39.487Z,101207.59
2023-07-21T22:01:06.362Z,101210.06
2023-07-21T22:03:35.152Z,101210.06
2023-07-21T22:06:02.273Z,101218.09
2023-07-21T22:08:28.920Z,101218.94
2023-07-21T22:10:55.827Z,101216.59
2023-07-21T22:13:22.870Z,101211.13
2023-07-21T22:15:49.687Z,101206.69
2023-07-21T22:18:16.289Z,101219.13
2023-07-21T22:20:43.402Z,101216.66
2023-07-21T22:23:13.436Z,101212.28
2023-07-21T22:25:40.145Z,101218.75
2023-07-21T22:28:09.079Z,101209.09
2023-07-21T22:30:36.148Z,101215.63
2023-07-21T22:33:04.210Z,101205.50
2023-07-21T22:35:32.669Z,101203.31
2023-07-21T22:38:02.256Z,101202.69
2023-07-21T22:40:29.081Z,101206.97
2023-07-21T22:42:55.758Z,101214.22
2023-07-21T22:45:22.599Z,101210.19
2023-07-21T22:47:52.075Z,101218.72
2023-07-21T22:50:24.140Z,101212.47
2023-07-21T22:52:56.021Z,101214.91
2023-07-21T22:55:28.530Z,101218.94
2023-07-21T22:58:02.518Z,101224.31
2023-07-21T23:00:31.886Z,101211.75
2023-07-21T23:02:58.854Z,101215.22
2023-07-21T23:05:25.724Z,101221.69
2023-07-21T23:07:52.572Z,101219.81
2023-07-21T23:10:19.995Z,101227.69
2023-07-21T23:12:47.438Z,101224.91
2023-07-21T23:15:14.186Z,101224.69
2023-07-21T23:17:40.942Z,101214.88
2023-07-21T23:20:08.927Z,101217.91
2023-07-21T23:22:35.722Z,101227.44
2023-07-21T23:25:02.663Z,101210.84
2023-07-21T23:27:29.653Z,101214.34
2023-07-21T23:29:56.754Z,101217.19
2023-07-21T23:32:23.650Z,101219.56
2023-07-21T23:34:50.571Z,101223.09
2023-07-21T23:37:17.292Z,101216.97
2023-07-21T23:39:44.010Z,101210.97
2023-07-21T23:42:10.784Z,101220.63
2023-07-21T23:44:38.846Z,101212.22
2023-07-21T23:47:08.516Z,101204.91
2023-07-21T23:49:35.299Z,101213.84
2023-07-21T23:52:03.598Z,101203.31
2023-07-21T23:54:30.762Z,101210.28
2023-07-21T23:56:58.206Z,101215.94
2023-07-21T23:59:25.149Z,101203.38
